createdAt,value
2019-05-19T00:01:34.920Z,4.37
2019-05-19T00:06:38.806Z,4.40
2019-05-19T00:11:43.120Z,4.90
2019-05-19T00:16:47.083Z,4.17
2019-05-19T00:21:52.087Z,4.93
2019-05-19T00:26:56.848Z,4.70
2019-05-19T00:32:01.187Z,4.37
2019-05-19T00:37:05.859Z,5.10
2019-05-19T00:42:10.572Z,4.50
2019-05-19T00:47:15.170Z,4.53
2019-05-19T00:52:19.568Z,4.03
2019-05-19T00:57:24.515Z,5.10
2019-05-19T01:02:29.199Z,4.53
2019-05-19T01:07:33.869Z,4.50
2019-05-19T01:12:38.598Z,4.33
2019-05-19T01:17:43.277Z,4.30
2019-05-19T01:22:47.611Z,4.50
2019-05-19T01:27:51.971Z,3.90
2019-05-19T01:32:56.294Z,4.43
2019-05-19T01:38:00.580Z,4.20
2019-05-19T01:43:04.646Z,4.50
2019-05-19T01:48:09.442Z,4.10
2019-05-19T01:53:13.864Z,4.23
2019-05-19T01:58:18.295Z,4.80
2019-05-19T02:03:22.811Z,4.80
2019-05-19T02:08:27.456Z,4.07
2019-05-19T02:13:31.871Z,4.37
2019-05-19T02:18:35.934Z,4.60
2019-05-19T02:23:40.872Z,4.20
2019-05-19T02:28:45.208Z,4.57
2019-05-19T02:33:49.282Z,5.17
2019-05-19T02:38:53.547Z,4.33
2019-05-19T02:43:59.101Z,4.80
2019-05-19T02:49:04.430Z,4.23
2019-05-19T02:54:09.549Z,4.40
2019-05-19T02:59:14.237Z,4.67
2019-05-19T03:04:18.940Z,4.20
2019-05-19T03:09:23.993Z,5.00
2019-05-19T03:14:28.395Z,5.10
2019-05-19T03:19:32.467Z,5.13
2019-05-19T03:24:36.797Z,5.03
2019-05-19T03:29:45.701Z,4.10
2019-05-19T03:34:50.997Z,4.57
2019-05-19T03:39:55.174Z,4.87
2019-05-19T03:44:59.311Z,4.80
2019-05-19T03:50:03.388Z,4.50
2019-05-19T03:55:07.631Z,4.70
2019-05-19T04:00:12.325Z,5.70
2019-05-19T04:05:16.396Z,5.60
2019-05-19T04:10:20.460Z,5.57
2019-05-19T04:15:24.867Z,4.87
2019-05-19T04:20:29.542Z,5.17
2019-05-19T04:25:33.640Z,5.33
2019-05-19T04:30:38.284Z,4.80
2019-05-19T04:35:42.642Z,5.00
2019-05-19T04:40:47.601Z,5.13
2019-05-19T04:45:52.056Z,5.10
2019-05-19T04:50:56.345Z,5.50
2019-05-19T04:56:00.656Z,5.53
2019-05-19T05:01:05.111Z,4.87
2019-05-19T05:06:09.755Z,5.33
2019-05-19T05:11:14.299Z,5.50
2019-05-19T05:16:18.683Z,5.83
2019-05-19T05:21:23.613Z,5.27
2019-05-19T05:26:27.883Z,5.07
2019-05-19T05:31:32.568Z,4.73
2019-05-19T05:36:37.784Z,5.47
2019-05-19T05:41:42.439Z,4.50
2019-05-19T05:46:46.803Z,5.40
2019-05-19T05:51:51.519Z,5.90
2019-05-19T05:56:55.884Z,5.13
2019-05-19T06:02:00.295Z,5.50
2019-05-19T06:07:04.384Z,5.20
2019-05-19T06:12:08.732Z,4.77
2019-05-19T06:17:12.794Z,5.87
2019-05-19T06:22:17.199Z,6.13
2019-05-19T06:27:21.567Z,6.20
2019-05-19T06:32:32.787Z,6.17
2019-05-19T06:37:36.839Z,5.30
2019-05-19T06:42:41.219Z,5.70
2019-05-19T06:47:45.859Z,7.10
2019-05-19T06:52:50.555Z,5.77
2019-05-19T06:57:54.915Z,8.20
2019-05-19T07:02:58.911Z,7.70
2019-05-19T07:08:03.565Z,7.83
2019-05-19T07:13:10.607Z,6.60
2019-05-19T07:18:15.354Z,9.40
2019-05-19T07:23:27.970Z,11.53
2019-05-19T07:28:26.268Z,8.73
2019-05-19T07:33:31.016Z,9.83
2019-05-19T07:38:35.083Z,7.13
2019-05-19T07:43:39.480Z,7.70
2019-05-19T07:48:43.483Z,8.13
2019-05-19T07:53:48.174Z,10.33
2019-05-19T07:58:52.607Z,9.00
2019-05-19T08:03:56.711Z,7.90
2019-05-19T08:09:01.164Z,10.60
2019-05-19T08:14:06.555Z,10.50
2019-05-19T08:19:11.211Z,15.30
2019-05-19T08:24:15.672Z,16.27
2019-05-19T08:29:20.140Z,14.37
2019-05-19T08:34:24.252Z,12.87
2019-05-19T08:39:28.566Z,10.73
2019-05-19T08:44:33.013Z,13.30
2019-05-19T08:49:37.473Z,11.80
2019-05-19T08:54:42.099Z,26.27
2019-05-19T08:59:46.724Z,23.43
2019-05-19T09:04:50.791Z,20.73
2019-05-19T09:09:55.512Z,20.20
2019-05-19T09:14:59.747Z,24.10
2019-05-19T09:20:04.285Z,23.02
2019-05-19T09:25:08.634Z,23.87
2019-05-19T09:30:13.003Z,23.13
2019-05-19T09:35:17.071Z,23.67
2019-05-19T09:40:21.417Z,21.83
2019-05-19T09:45:25.451Z,20.03
2019-05-19T09:50:29.943Z,20.40
2019-05-19T09:55:34.066Z,16.17
2019-05-19T10:00:38.755Z,15.70
2019-05-19T10:05:43.343Z,17.10
2019-05-19T10:11:07.083Z,14.60
2019-05-19T10:16:11.730Z,13.80
2019-05-19T10:21:16.652Z,12.53
2019-05-19T10:26:21.223Z,10.63
2019-05-19T10:31:25.792Z,12.73
2019-05-19T10:36:29.928Z,9.37
2019-05-19T10:41:33.990Z,10.20
2019-05-19T10:46:38.671Z,9.97
2019-05-19T10:51:42.823Z,9.50
2019-05-19T10:56:46.871Z,8.67
2019-05-19T11:01:50.955Z,8.23
2019-05-19T11:06:55.601Z,9.07
2019-05-19T11:11:59.911Z,10.07
2019-05-19T11:17:04.273Z,8.17
2019-05-19T11:22:08.700Z,7.97
2019-05-19T11:27:13.355Z,7.87
2019-05-19T11:32:18.272Z,7.30
2019-05-19T11:37:22.841Z,7.30
2019-05-19T11:42:27.807Z,7.97
2019-05-19T11:47:32.203Z,7.57
2019-05-19T11:52:36.577Z,7.90
2019-05-19T11:57:40.567Z,7.03
2019-05-19T12:02:45.447Z,7.83
2019-05-19T12:07:50.395Z,7.10
2019-05-19T12:12:54.774Z,7.17
2019-05-19T12:17:58.823Z,8.10
2019-05-19T12:23:03.158Z,8.43
2019-05-19T12:28:07.645Z,7.07
2019-05-19T12:33:13.054Z,7.20
2019-05-19T12:38:17.699Z,7.37
2019-05-19T12:43:22.388Z,7.00
2019-05-19T12:48:27.134Z,6.90
2019-05-19T12:53:31.475Z,6.37
2019-05-19T12:58:36.220Z,7.13
2019-05-19T13:03:40.576Z,6.40
2019-05-19T13:08:44.994Z,5.23
2019-05-19T13:13:49.728Z,6.60
2019-05-19T13:18:54.032Z,5.27
2019-05-19T13:23:58.760Z,5.07
2019-05-19T13:29:02.881Z,5.23
2019-05-19T13:34:07.592Z,5.10
2019-05-19T13:39:12.002Z,5.10
2019-05-19T13:44:16.340Z,4.20
2019-05-19T13:49:21.079Z,5.50
2019-05-19T13:54:25.651Z,4.60
2019-05-19T13:59:30.490Z,4.70
2019-05-19T14:04:34.939Z,4.53
2019-05-19T14:09:39.171Z,6.45
2019-05-19T14:14:43.863Z,5.70
2019-05-19T14:19:48.210Z,5.77
2019-05-19T14:24:52.250Z,4.77
2019-05-19T14:29:56.483Z,4.40
2019-05-19T14:35:01.010Z,4.07
2019-05-19T14:40:05.614Z,4.17
2019-05-19T14:45:09.996Z,4.10
2019-05-19T14:50:14.928Z,3.90
2019-05-19T14:55:19.516Z,3.50
2019-05-19T15:00:24.289Z,3.03
2019-05-19T15:05:28.667Z,3.13
2019-05-19T15:10:32.818Z,3.47
2019-05-19T15:15:36.923Z,2.80
2019-05-19T15:21:00.631Z,3.30
2019-05-19T15:26:05.267Z,2.70
2019-05-19T15:31:10.231Z,2.80
2019-05-19T15:36:15.004Z,3.63
2019-05-19T15:41:19.381Z,3.90
2019-05-19T15:46:23.511Z,3.10
2019-05-19T15:51:30.021Z,3.37
2019-05-19T15:56:34.249Z,3.63
2019-05-19T16:01:39.497Z,4.00
2019-05-19T16:06:43.567Z,3.10
2019-05-19T16:11:47.963Z,3.30
2019-05-19T16:16:52.286Z,3.43
2019-05-19T16:21:56.799Z,3.63
2019-05-19T16:27:01.170Z,3.27
2019-05-19T16:32:05.200Z,3.40
2019-05-19T16:37:09.779Z,2.90
2019-05-19T16:42:14.366Z,3.20
2019-05-19T16:47:43.946Z,2.90
2019-05-19T16:52:48.616Z,32.23
2019-05-19T16:57:52.682Z,28.03
2019-05-19T17:02:57.362Z,15.77
2019-05-19T17:08:01.771Z,39.00
2019-05-19T17:13:06.442Z,39.90
2019-05-19T17:18:11.113Z,24.70
2019-05-19T17:23:15.019Z,22.33
2019-05-19T17:28:19.011Z,27.97
2019-05-19T17:33:23.269Z,19.27
2019-05-19T17:38:27.939Z,7.93
2019-05-19T17:43:32.604Z,6.40
2019-05-19T17:48:36.951Z,5.57
2019-05-19T17:53:41.691Z,5.97
2019-05-19T17:58:47.435Z,5.77
2019-05-19T18:03:52.596Z,5.23
2019-05-19T18:08:56.990Z,5.40
2019-05-19T18:14:01.372Z,6.70
2019-05-19T18:19:05.441Z,7.63
2019-05-19T18:24:09.435Z,6.57
2019-05-19T18:29:13.708Z,6.80
2019-05-19T18:34:18.428Z,5.10
2019-05-19T18:39:22.433Z,4.50
2019-05-19T18:44:26.724Z,4.87
2019-05-19T18:49:30.852Z,4.50
2019-05-19T18:54:35.194Z,4.57
2019-05-19T18:59:47.476Z,4.77
2019-05-19T19:04:45.899Z,4.87
2019-05-19T19:09:49.822Z,4.30
2019-05-19T19:14:54.362Z,4.80
2019-05-19T19:19:58.331Z,4.10
2019-05-19T19:25:02.807Z,3.90
2019-05-19T19:30:07.064Z,4.80
2019-05-19T19:35:11.499Z,4.33
2019-05-19T19:40:19.727Z,4.17
2019-05-19T19:45:24.288Z,4.30
2019-05-19T19:50:28.607Z,4.43
2019-05-19T19:55:32.963Z,4.07
2019-05-19T20:00:42.758Z,3.90
2019-05-19T20:05:47.117Z,4.63
2019-05-19T20:10:51.331Z,4.13
2019-05-19T20:15:55.839Z,4.37
2019-05-19T20:21:00.095Z,3.73
2019-05-19T20:26:04.420Z,4.50
2019-05-19T20:31:08.891Z,4.57
2019-05-19T20:36:13.636Z,4.30
2019-05-19T20:41:18.527Z,5.80
2019-05-19T20:46:23.844Z,4.40
2019-05-19T20:51:28.578Z,4.50
2019-05-19T20:56:32.652Z,4.73
2019-05-19T21:01:36.931Z,3.90
2019-05-19T21:06:41.418Z,4.60
2019-05-19T21:11:45.766Z,4.13
2019-05-19T21:16:50.107Z,3.80
2019-05-19T21:21:54.596Z,4.33
2019-05-19T21:26:58.963Z,4.47
2019-05-19T21:32:02.967Z,4.83
2019-05-19T21:37:07.579Z,5.50
2019-05-19T21:42:12.245Z,4.77
2019-05-19T21:47:16.319Z,4.60
2019-05-19T21:52:20.955Z,4.33
2019-05-19T21:57:25.392Z,4.40
2019-05-19T22:02:29.630Z,4.43
2019-05-19T22:08:10.871Z,4.90
2019-05-19T22:13:15.783Z,4.30
2019-05-19T22:18:20.088Z,5.03
2019-05-19T22:23:24.851Z,5.30
2019-05-19T22:28:29.135Z,4.60
2019-05-19T22:33:33.123Z,4.87
2019-05-19T22:38:37.311Z,5.10
2019-05-19T22:43:41.701Z,4.40
2019-05-19T22:48:46.348Z,5.10
2019-05-19T22:53:50.919Z,5.30
2019-05-19T22:58:55.417Z,5.40
2019-05-19T23:04:00.331Z,4.80
2019-05-19T23:09:06.063Z,4.63
2019-05-19T23:14:10.171Z,5.00
2019-05-19T23:19:15.084Z,4.67
2019-05-19T23:24:19.284Z,4.57
2019-05-19T23:29:23.268Z,4.93
2019-05-19T23:34:27.302Z,5.43
2019-05-19T23:39:31.439Z,5.40
2019-05-19T23:44:35.811Z,4.80
2019-05-19T23:49:40.693Z,4.70
2019-05-19T23:54:45.092Z,5.70
2019-05-19T23:59:49.718Z,4.97
